Smackover, AR (71762)

8:36 PM CDT on July 25, 2014 (GMT -0500)
South Arkansas Regional At Goodwin (KELD) Elev 276 ft | 33.22 °N, 92.81 °W | Change Station

Current weather conditions updated 43 minutes ago

Clear
Clear
82 °F
Feels Like 90 °F
N
0
Wind Variable Wind from North

Tomorrow is forecast to be Warmer than today.

Today
High -- | Low -- °F
--% Chance of Precip.
Yesterday
High -- | Low -- °F
Precip. -- in
6:18 AM 8:15 PM
Waning Crescent, 1% visible
Pressure 29.96 in
Visibility 10.0 miles
Clouds Clear
Heat Index 90 °F
Dew Point 77 °F
Humidity 85%
Rainfall 0.00 in
Snow Depth Not available.
UV 0 out of 12
Pollen 4.00 out of 12
Air Quality Not available.
Flu Activity Not available.
METAR KELD 260053Z AUTO 00000KT 10SM CLR 28/25 A2997 RMK AO2 SLP146 T02780250

More Conditions Fewer Conditions

Pressure 29.96 in
Visibility 10.0 miles
Clouds Clear
Heat Index 90 °F
Dew Point 77 °F
Humidity 85%
Rainfall 0.00 in
Snow Depth Not available.
UV 0 out of 12
Pollen 4.00 out of 12
Air Quality Not available.
Flu Activity Not available.
METAR KELD 260053Z AUTO 00000KT 10SM CLR 28/25 A2997 RMK AO2 SLP146 T02780250

More Conditions Fewer Conditions

10-Day Weather Forecast

Almanac

Astronomy

Jul. 25, 2014 Rise Set
Actual Time 6:18 AM CDT 8:15 PM CDT
Civil Twilight 5:51 AM CDT 8:43 PM CDT
Nautical Twilight 5:17 AM CDT 9:16 PM CDT
Astronomical Twilight 4:41 AM CDT 9:52 PM CDT
Moon 5:16 AM CDT (7/25) 7:15 PM CDT (7/25)
Length of Visible Light 14h 52m
Length of Day
13h 56m
Tomorrow will be 1m 22s shorter.
Waning Crescent, 1% of the Moon is Illuminated
Today
Waning Crescent
Jul 26
New
Aug 3
First Quarter
Aug 10
Full
Aug 17
Last Quarter

Today's Extremes

State Highs State Lows

Community

WunderPhotos

Upload Photos

1,737,459 photos uploaded!

Nearby

Snow Depth

Station Depth Elevation
No new snow has been reported.

Earthquake Activity

City Distance Mag. Time & Date
No recent earthquake activity has been reported nearby.
Minimum magnitude displayed is 2.5.

Coastal Water Temperatures

Place Temperature
No Stations Reporting

Nearby Weather Stations

Station Location Temp. Heat Index Dew Point Humidity Wind Precip. Elev Updated Type
MesoWest NORPLT , Norphlet, AR 88 °F 85 °F - - North  at  - 0.00 in / hr 117 ft 6:10 PM CDT MADIS
MesoWest HEBERT , Camden, AR 86 °F 83 °F - - North  at  - 0.00 in / hr 144 ft 6:05 PM CDT MADIS
Hampton, AR, Hampton, AR 80.2 °F 86 °F 76 °F 87% North  at  0.0 mph 0.00 in / hr 200 ft 8:36 PM CDT Rapid Fire
MesoWest MCNEIL , McNeil, AR 85 °F 82 °F - - North  at  - 0.00 in / hr 216 ft 6:45 PM CDT MADIS

Show More Stations Show Fewer Stations